Aviation Digital Data Service (ADDS)

Output produced by METARs form (1352 UTC 20 July 2019)
found at http://www.aviationweather.gov/metar/data/
 
Forecast for: RJNT (TOYAMA AIRPORT , JP)
Text: TAF RJNT 201106Z 2012/2118 18004KT 9999 FEW020 SCT080
Forecast period: 1200 UTC 20 July 2019 to 1800 UTC 21 July 2019
Forecast type: FROM: standard forecast or significant change
Winds: from the S (180 degrees) at 5 MPH (4 knots; 2.1 m/s)
Visibility: 6 or more miles 10+ km)
Ceiling: at least 12,000 feet AGL
Clouds: few clouds at 2000 feet AGL
scattered clouds at 8000 feet AGL
Weather: no significant weather forecast for this period